Time;durP1;ratioP1;P1;durP2;ratioP2;P2;SDS_P1;SDS_P2;PMS_P1;PMS_P2;Temp;Humidity;BMP_temperature;BMP_pressure;BME280_temperature;BME280_humidity;BME280_pressure;Samples;Min_cycle;Max_cycle;Signal;HPM_P1;HPM_P2
2023/07/23 00:01:27;;;;;;;;;;;;;;;21.10;64.08;100995.59;107666;1251;108567;-69
2023/07/23 00:03:56;;;;;;;;;;;;;;;21.09;64.20;100999.98;107638;1251;96494;-68
2023/07/23 00:06:24;;;;;;;;;;;;;;;21.11;63.99;101009.16;107690;1251;96463;-69
2023/07/23 00:08:52;;;;;;;;;;;;;;;21.19;63.87;101009.17;107703;1251;109681;-68
2023/07/23 00:11:20;;;;;;;;;;;;;;;21.30;63.54;101001.11;107622;1252;109676;-69
2023/07/23 00:13:48;;;;;;;;;;;;;;;21.39;63.52;100999.77;107601;1255;108273;-68
2023/07/23 00:16:16;;;;;;;;;;;;;;;21.42;63.05;100996.55;107645;1253;96484;-69
2023/07/23 00:18:44;;;;;;;;;;;;;;;21.42;63.15;101005.15;107678;1254;96463;-70
2023/07/23 00:21:12;;;;;;;;;;;;;;;21.38;63.47;101014.21;107668;1254;109622;-69
2023/07/23 00:23:40;;;;;;;;;;;;;;;21.32;62.88;101017.20;107681;1254;109927;-69
2023/07/23 00:26:08;;;;;;;;;;;;;;;21.32;63.14;101015.98;107616;1254;107958;-68
2023/07/23 00:28:37;;;;;;;;;;;;;;;21.28;63.19;101012.89;107633;1256;96594;-67
2023/07/23 00:31:05;;;;;;;;;;;;;;;21.25;63.37;101017.59;107655;1254;96561;-69
2023/07/23 00:33:33;;;;;;;;;;;;;;;21.20;63.45;101021.64;107664;1253;110230;-69
2023/07/23 00:36:01;;;;;;;;;;;;;;;21.15;63.47;101029.65;107670;1251;111188;-68
2023/07/23 00:38:30;;;;;;;;;;;;;;;21.11;64.11;101035.98;107629;1251;108152;-69
2023/07/23 00:40:58;;;;;;;;;;;;;;;21.03;64.17;101029.73;107661;1251;96525;-70
2023/07/23 00:43:26;;;;;;;;;;;;;;;20.96;64.15;101028.20;107628;1253;96380;-67
2023/07/23 00:45:54;;;;;;;;;;;;;;;20.92;64.14;101027.51;107540;1253;110664;-68
2023/07/23 00:48:23;;;;;;;;;;;;;;;20.91;64.10;101028.75;107670;1251;109727;-67
2023/07/23 00:50:52;;;;;;;;;;;;;;;20.91;64.08;101029.30;107600;1251;108151;-68
2023/07/23 00:53:21;;;;;;;;;;;;;;;20.91;63.95;101030.86;107566;1254;96614;-69
2023/07/23 00:55:49;;;;;;;;;;;;;;;20.91;64.04;101021.94;107691;1253;96475;-68
2023/07/23 00:58:18;;;;;;;;;;;;;;;20.88;64.17;101010.98;107633;1251;109923;-70
2023/07/23 01:00:46;;;;;;;;;;;;;;;20.85;64.44;101004.73;107620;1250;109377;-69
2023/07/23 01:03:14;;;;;;;;;;;;;;;20.79;64.21;101003.13;107616;1251;107929;-69
2023/07/23 01:05:44;;;;;;;;;;;;;;;20.77;64.51;101003.02;107632;1251;96742;-70
2023/07/23 01:08:12;;;;;;;;;;;;;;;20.72;65.03;101007.48;107732;1251;96549;-69
2023/07/23 01:10:40;;;;;;;;;;;;;;;20.66;64.94;101009.61;107615;1254;109858;-69
2023/07/23 01:13:09;;;;;;;;;;;;;;;20.66;64.84;101009.27;107645;1250;109146;-67
2023/07/23 01:15:37;;;;;;;;;;;;;;;20.69;64.74;101010.92;107579;1255;108092;-68
2023/07/23 01:18:05;;;;;;;;;;;;;;;20.71;64.61;101004.67;107578;1254;96568;-69
2023/07/23 01:20:34;;;;;;;;;;;;;;;20.73;65.58;101009.16;107657;1254;96553;-69
2023/07/23 01:23:02;;;;;;;;;;;;;;;20.71;65.42;101007.80;107643;1256;109327;-68
2023/07/23 01:25:31;;;;;;;;;;;;;;;20.70;65.09;101010.61;107608;1251;109830;-68
2023/07/23 01:27:59;;;;;;;;;;;;;;;20.69;65.08;101005.60;107564;1254;107057;-69
2023/07/23 01:30:28;;;;;;;;;;;;;;;20.67;64.75;101007.33;107602;1251;97813;-67
2023/07/23 01:32:56;;;;;;;;;;;;;;;20.64;65.47;101009.74;107698;1251;97832;-69
2023/07/23 01:35:25;;;;;;;;;;;;;;;20.61;65.16;101012.50;107618;1251;111795;-67
2023/07/23 01:37:54;;;;;;;;;;;;;;;20.61;65.44;101019.73;107658;1251;109342;-68
2023/07/23 01:40:27;;;;;;;;;;;;;;;20.62;65.29;101027.86;107605;1251;109273;-68
2023/07/23 01:42:56;;;;;;;;;;;;;;;20.61;65.46;101030.87;107597;1251;97857;-69
2023/07/23 01:45:27;;;;;;;;;;;;;;;20.59;65.15;101042.08;107650;1254;97697;-68
2023/07/23 01:47:56;;;;;;;;;;;;;;;20.53;65.26;101041.61;107632;1254;112259;-69
2023/07/23 01:50:24;;;;;;;;;;;;;;;20.49;65.54;101040.61;107600;1251;109446;-70
2023/07/23 01:52:52;;;;;;;;;;;;;;;20.49;65.78;101047.55;107622;1253;107912;-69
2023/07/23 01:55:21;;;;;;;;;;;;;;;20.47;65.85;101046.89;107608;1254;97815;-69
2023/07/23 01:57:49;;;;;;;;;;;;;;;20.45;65.98;101043.30;107682;1254;98103;-67
2023/07/23 02:00:19;;;;;;;;;;;;;;;20.43;65.80;101042.10;107585;1254;111019;-69
2023/07/23 02:02:47;;;;;;;;;;;;;;;20.40;65.68;101043.88;107600;1254;108872;-67
2023/07/23 02:05:17;;;;;;;;;;;;;;;20.38;65.71;101039.58;107640;1254;108709;-69
2023/07/23 02:07:45;;;;;;;;;;;;;;;20.36;65.92;101039.92;107588;1253;97836;-69
2023/07/23 02:10:14;;;;;;;;;;;;;;;20.31;66.03;101040.26;107570;1254;97814;-69
2023/07/23 02:12:42;;;;;;;;;;;;;;;20.28;66.62;101043.21;107667;1254;111319;-68
2023/07/23 02:15:11;;;;;;;;;;;;;;;20.26;66.43;101044.95;107599;1254;109477;-68
2023/07/23 02:17:40;;;;;;;;;;;;;;;20.24;66.22;101050.35;107610;1254;107774;-68
2023/07/23 02:20:09;;;;;;;;;;;;;;;20.21;66.14;101052.14;107583;1253;97922;-68
2023/07/23 02:22:37;;;;;;;;;;;;;;;20.16;66.11;101055.61;107610;1254;97973;-67
2023/07/23 02:25:06;;;;;;;;;;;;;;;20.12;66.24;101055.39;107636;1256;112307;-69
2023/07/23 02:27:34;;;;;;;;;;;;;;;20.09;66.45;101067.45;107634;1251;110246;-69
2023/07/23 02:30:03;;;;;;;;;;;;;;;20.07;66.58;101070.04;107602;1251;107809;-69
2023/07/23 02:32:32;;;;;;;;;;;;;;;20.06;66.73;101068.75;107553;1255;97817;-68
2023/07/23 02:35:00;;;;;;;;;;;;;;;20.04;66.44;101075.55;107603;1254;97876;-68
2023/07/23 02:37:28;;;;;;;;;;;;;;;20.02;66.50;101076.75;107566;1251;111224;-67
2023/07/23 02:39:57;;;;;;;;;;;;;;;19.97;67.01;101076.31;107549;1254;109362;-68
2023/07/23 02:42:25;;;;;;;;;;;;;;;19.93;66.95;101073.19;107622;1253;107501;-68
2023/07/23 02:44:54;;;;;;;;;;;;;;;19.92;67.31;101069.66;107641;1252;97911;-68
2023/07/23 02:47:22;;;;;;;;;;;;;;;19.92;67.23;101066.59;107634;1254;97803;-68
2023/07/23 02:49:51;;;;;;;;;;;;;;;19.91;67.36;101063.47;107555;1253;111817;-69
2023/07/23 02:52:19;;;;;;;;;;;;;;;19.92;67.75;101063.18;107611;1254;109713;-69
2023/07/23 02:54:48;;;;;;;;;;;;;;;19.93;67.71;101064.67;107648;1251;108245;-68
2023/07/23 02:57:16;;;;;;;;;;;;;;;19.94;67.90;101068.63;107623;1251;97902;-68
2023/07/23 02:59:45;;;;;;;;;;;;;;;19.93;67.73;101067.98;107736;1252;97682;-68
2023/07/23 03:02:14;;;;;;;;;;;;;;;19.93;67.59;101066.52;107562;1251;112159;-69
2023/07/23 03:04:43;;;;;;;;;;;;;;;19.94;67.53;101072.04;107628;1251;109277;-68
2023/07/23 03:07:11;;;;;;;;;;;;;;;19.92;68.12;101078.09;107605;1251;108255;-68
2023/07/23 03:09:39;;;;;;;;;;;;;;;19.89;68.01;101081.34;107589;1251;97929;-68
2023/07/23 03:12:09;;;;;;;;;;;;;;;19.88;68.57;101083.20;107622;1250;97893;-69
2023/07/23 03:14:38;;;;;;;;;;;;;;;19.85;69.01;101092.91;107606;1254;111964;-67
2023/07/23 03:17:06;;;;;;;;;;;;;;;19.82;69.02;101094.06;107634;1254;109780;-68
2023/07/23 03:19:34;;;;;;;;;;;;;;;19.78;69.68;101100.17;107634;1256;108116;-68
2023/07/23 03:22:02;;;;;;;;;;;;;;;19.75;69.09;101102.02;107592;1254;97806;-67
2023/07/23 03:24:30;;;;;;;;;;;;;;;19.74;69.20;101102.48;107650;1253;97832;-68
2023/07/23 03:26:58;;;;;;;;;;;;;;;19.66;69.42;101102.54;107651;1251;111631;-67
2023/07/23 03:29:27;;;;;;;;;;;;;;;19.63;68.95;101103.64;107625;1251;109067;-68
2023/07/23 03:31:55;;;;;;;;;;;;;;;19.68;68.80;101104.12;107623;1251;108208;-68
2023/07/23 03:34:23;;;;;;;;;;;;;;;19.74;68.66;101108.98;107589;1251;97839;-69
2023/07/23 03:36:52;;;;;;;;;;;;;;;19.80;68.51;101111.55;107569;1254;97810;-68
2023/07/23 03:39:21;;;;;;;;;;;;;;;19.88;68.54;101114.07;107650;1254;111912;-68
2023/07/23 03:41:50;;;;;;;;;;;;;;;19.94;68.28;101115.75;107670;1251;110594;-69
2023/07/23 03:44:18;;;;;;;;;;;;;;;19.98;67.91;101117.33;107619;1254;108087;-70
2023/07/23 03:47:00;;;;;;;;;;;;;;;20.01;68.78;101116.14;107652;1254;97815;-67
2023/07/23 03:49:29;;;;;;;;;;;;;;;19.99;68.68;101117.95;107593;1251;97748;-69
2023/07/23 03:52:04;;;;;;;;;;;;;;;19.97;68.64;101109.40;107596;1251;110625;-69
2023/07/23 03:54:56;;;;;;;;;;;;;;;20.00;68.55;101097.77;107573;1251;109417;-72
2023/07/23 03:57:47;;;;;;;;;;;;;;;20.03;68.35;101104.58;107609;1251;107645;-74
2023/07/23 04:00:24;;;;;;;;;;;;;;;20.13;68.92;101106.15;107558;1254;97697;-73
2023/07/23 04:03:44;;;;;;;;;;;;;;;20.22;68.60;101108.95;107468;1253;97820;-71
2023/07/23 04:06:49;;;;;;;;;;;;;;;20.31;68.45;101115.88;107577;1251;111867;-72
2023/07/23 04:09:41;;;;;;;;;;;;;;;20.50;68.62;101117.14;107641;1252;110314;-71
2023/07/23 04:12:11;;;;;;;;;;;;;;;20.62;68.10;101127.35;107584;1256;107823;-68
2023/07/23 04:14:44;;;;;;;;;;;;;;;20.65;67.84;101129.52;107657;1254;97800;-68
2023/07/23 04:17:13;;;;;;;;;;;;;;;20.69;67.77;101125.87;107626;1251;97906;-67
2023/07/23 04:19:45;;;;;;;;;;;;;;;20.71;67.46;101125.45;107655;1254;111669;-70
2023/07/23 04:22:13;;;;;;;;;;;;;;;20.72;67.83;101124.08;107620;1251;109902;-68
2023/07/23 04:24:41;;;;;;;;;;;;;;;20.70;67.39;101114.98;107624;1251;108320;-69
2023/07/23 04:27:09;;;;;;;;;;;;;;;20.70;67.22;101109.93;107611;1254;97803;-69
2023/07/23 04:29:38;;;;;;;;;;;;;;;20.74;67.32;101105.20;107674;1254;97835;-69
2023/07/23 04:32:06;;;;;;;;;;;;;;;20.78;67.14;101107.68;107601;1252;111563;-72
2023/07/23 04:34:34;;;;;;;;;;;;;;;20.81;67.09;101106.88;107653;1251;109411;-67
2023/07/23 04:37:02;;;;;;;;;;;;;;;20.84;66.87;101104.52;107647;1251;107888;-70
2023/07/23 04:39:31;;;;;;;;;;;;;;;20.89;66.82;101100.66;107616;1251;97917;-72
2023/07/23 04:41:59;;;;;;;;;;;;;;;20.88;66.53;101101.42;107590;1254;97707;-70
2023/07/23 04:44:27;;;;;;;;;;;;;;;20.86;66.58;101109.22;107643;1254;112102;-71
2023/07/23 04:46:56;;;;;;;;;;;;;;;20.87;66.51;101113.06;107610;1254;109835;-69
2023/07/23 04:49:24;;;;;;;;;;;;;;;20.93;66.50;101115.77;107673;1255;108246;-71
2023/07/23 04:51:52;;;;;;;;;;;;;;;21.02;66.32;101122.04;107609;1254;97691;-71
2023/07/23 04:54:20;;;;;;;;;;;;;;;21.09;66.15;101122.82;107616;1255;97820;-68
2023/07/23 04:56:49;;;;;;;;;;;;;;;21.18;65.98;101120.99;107669;1254;111418;-70
2023/07/23 04:59:17;;;;;;;;;;;;;;;21.28;65.96;101115.48;107638;1254;109613;-72
2023/07/23 05:01:45;;;;;;;;;;;;;;;21.41;65.85;101117.63;107656;1251;107804;-69
2023/07/23 05:04:13;;;;;;;;;;;;;;;21.51;65.65;101108.92;107613;1256;97828;-69
2023/07/23 05:06:41;;;;;;;;;;;;;;;21.56;65.54;101108.05;107654;1253;97790;-70
2023/07/23 05:09:09;;;;;;;;;;;;;;;21.56;65.34;101115.50;107635;1256;111448;-69
2023/07/23 05:11:37;;;;;;;;;;;;;;;21.54;65.12;101117.92;107624;1256;109645;-71
2023/07/23 05:14:06;;;;;;;;;;;;;;;21.55;65.40;101116.25;107618;1254;108594;-70
2023/07/23 05:16:33;;;;;;;;;;;;;;;21.59;65.44;101120.85;107664;1251;97809;-70
2023/07/23 05:19:03;;;;;;;;;;;;;;;21.66;65.54;101129.03;107663;1255;98269;-67
2023/07/23 05:21:34;;;;;;;;;;;;;;;21.73;65.44;101132.55;107639;1251;112880;-70
2023/07/23 05:24:02;;;;;;;;;;;;;;;21.83;65.33;101134.73;107562;1254;109142;-65
2023/07/23 05:26:30;;;;;;;;;;;;;;;21.92;65.00;101143.96;107515;1256;108749;-71
2023/07/23 05:28:59;;;;;;;;;;;;;;;22.00;64.73;101156.22;107509;1254;97826;-70
2023/07/23 05:31:27;;;;;;;;;;;;;;;22.08;64.45;101168.48;107545;1255;97866;-71
2023/07/23 05:33:56;;;;;;;;;;;;;;;22.18;64.30;101173.21;107646;1256;113636;-70
2023/07/23 05:36:24;;;;;;;;;;;;;;;22.29;64.28;101175.40;107669;1256;109784;-72
2023/07/23 05:38:52;;;;;;;;;;;;;;;22.30;62.97;101176.16;107524;1256;107568;-69
2023/07/23 05:41:21;;;;;;;;;;;;;;;22.22;62.54;101177.61;107518;1251;97796;-69
2023/07/23 05:43:49;;;;;;;;;;;;;;;22.21;62.79;101178.66;107542;1256;97898;-73
2023/07/23 05:46:17;;;;;;;;;;;;;;;22.22;62.75;101180.52;107565;1254;111463;-73
2023/07/23 05:48:48;;;;;;;;;;;;;;;22.30;62.94;101182.80;107689;1251;109569;-71
2023/07/23 05:51:16;;;;;;;;;;;;;;;22.39;62.51;101183.43;107564;1251;107734;-71
2023/07/23 05:53:44;;;;;;;;;;;;;;;22.42;61.98;101190.96;107547;1251;97816;-70
2023/07/23 05:56:12;;;;;;;;;;;;;;;22.38;62.04;101204.72;107559;1254;97806;-70
2023/07/23 05:58:40;;;;;;;;;;;;;;;22.39;62.22;101208.13;107645;1256;111636;-69
2023/07/23 06:01:09;;;;;;;;;;;;;;;22.44;61.93;101206.74;107600;1254;109521;-71
2023/07/23 06:03:40;;;;;;;;;;;;;;;22.45;61.78;101201.69;107646;1251;107861;-70
2023/07/23 06:06:26;;;;;;;;;;;;;;;22.44;61.94;101191.39;107598;1254;97814;-72
2023/07/23 06:08:55;;;;;;;;;;;;;;;22.46;61.80;101181.58;107572;1251;97812;-68
2023/07/23 06:11:24;;;;;;;;;;;;;;;22.52;61.73;101183.02;107543;1256;111380;-69
2023/07/23 06:13:52;;;;;;;;;;;;;;;22.54;62.07;101188.64;107499;1251;108674;-69
2023/07/23 06:16:20;;;;;;;;;;;;;;;22.54;62.31;101198.14;107509;1251;107646;-73
2023/07/23 06:18:49;;;;;;;;;;;;;;;22.56;62.38;101205.56;107619;1257;97710;-71
2023/07/23 06:21:17;;;;;;;;;;;;;;;22.64;62.34;101209.52;107502;1251;97701;-71
2023/07/23 06:23:45;;;;;;;;;;;;;;;22.75;62.39;101218.29;107539;1251;112100;-68
2023/07/23 06:26:13;;;;;;;;;;;;;;;22.76;62.14;101214.70;107508;1255;109714;-68
2023/07/23 06:28:47;;;;;;;;;;;;;;;22.77;62.23;101212.27;107545;1251;108555;-71
2023/07/23 06:31:17;;;;;;;;;;;;;;;22.80;62.21;101209.48;107571;1256;97815;-68
2023/07/23 06:33:46;;;;;;;;;;;;;;;22.82;62.19;101212.23;107526;1250;97790;-68
2023/07/23 06:36:14;;;;;;;;;;;;;;;22.82;62.27;101225.18;107501;1251;112141;-66
2023/07/23 06:38:43;;;;;;;;;;;;;;;22.86;62.33;101228.02;107531;1255;109786;-69
2023/07/23 06:41:11;;;;;;;;;;;;;;;22.88;62.36;101225.11;107522;1254;108143;-67
2023/07/23 06:43:52;;;;;;;;;;;;;;;22.89;62.35;101221.44;107629;1254;97916;-70
2023/07/23 06:46:20;;;;;;;;;;;;;;;22.89;62.26;101226.13;107623;1256;97701;-69
2023/07/23 06:48:49;;;;;;;;;;;;;;;22.82;62.32;101235.30;107695;1251;111892;-71
2023/07/23 06:51:17;;;;;;;;;;;;;;;22.68;62.31;101237.45;107586;1251;110020;-72
2023/07/23 06:53:45;;;;;;;;;;;;;;;22.64;62.82;101237.90;107552;1251;107391;-69
2023/07/23 06:56:13;;;;;;;;;;;;;;;22.62;62.85;101235.45;107615;1254;97913;-69
2023/07/23 06:58:41;;;;;;;;;;;;;;;22.66;63.05;101240.54;107585;1251;97819;-70
2023/07/23 07:01:09;;;;;;;;;;;;;;;22.72;63.09;101251.83;107571;1256;110140;-68
2023/07/23 07:03:38;;;;;;;;;;;;;;;22.89;62.88;101258.58;107672;1255;109699;-68
2023/07/23 07:06:06;;;;;;;;;;;;;;;23.07;62.33;101264.65;107618;1255;108295;-67
2023/07/23 07:08:34;;;;;;;;;;;;;;;23.27;61.90;101266.13;107548;1250;97855;-72
2023/07/23 07:11:03;;;;;;;;;;;;;;;23.38;61.23;101267.33;107523;1254;97841;-69
2023/07/23 07:13:32;;;;;;;;;;;;;;;23.38;60.27;101265.09;107655;1257;112377;-70
2023/07/23 07:16:00;;;;;;;;;;;;;;;23.41;60.18;101255.92;107671;1254;108568;-69
2023/07/23 07:18:28;;;;;;;;;;;;;;;23.55;59.92;101255.34;107620;1255;107825;-69
2023/07/23 07:20:58;;;;;;;;;;;;;;;23.56;59.60;101252.98;107627;1255;97832;-70
2023/07/23 07:23:27;;;;;;;;;;;;;;;23.64;59.45;101250.77;107652;1254;97816;-70
2023/07/23 07:25:56;;;;;;;;;;;;;;;23.81;59.44;101242.83;107630;1255;111505;-69
2023/07/23 07:28:24;;;;;;;;;;;;;;;23.98;58.94;101249.55;107652;1254;109720;-69
2023/07/23 07:30:57;;;;;;;;;;;;;;;24.03;58.25;101251.10;107591;1257;107752;-70
2023/07/23 07:33:25;;;;;;;;;;;;;;;24.03;57.90;101252.71;107624;1251;97888;-69
2023/07/23 07:35:57;;;;;;;;;;;;;;;24.11;58.38;101241.35;107595;1251;97815;-69
2023/07/23 07:38:30;;;;;;;;;;;;;;;24.15;57.78;101243.17;107558;1251;111655;-69
2023/07/23 07:41:01;;;;;;;;;;;;;;;24.25;58.27;101239.24;107620;1251;108266;-69
2023/07/23 07:43:29;;;;;;;;;;;;;;;24.44;57.97;101238.30;107620;1254;107798;-68
2023/07/23 07:45:59;;;;;;;;;;;;;;;24.57;57.28;101235.50;107674;1253;97826;-69
2023/07/23 07:48:29;;;;;;;;;;;;;;;24.67;57.00;101236.19;107552;1251;97915;-69
2023/07/23 07:51:03;;;;;;;;;;;;;;;24.74;56.66;101236.98;107575;1251;111024;-73
2023/07/23 07:53:33;;;;;;;;;;;;;;;24.68;56.12;101227.19;107629;1251;110011;-68
2023/07/23 07:56:02;;;;;;;;;;;;;;;24.76;56.48;101224.73;107587;1251;108027;-69
2023/07/23 07:58:30;;;;;;;;;;;;;;;24.87;56.56;101221.84;107559;1254;97806;-69
2023/07/23 08:00:59;;;;;;;;;;;;;;;24.94;55.63;101220.64;107600;1254;97844;-71
2023/07/23 08:03:29;;;;;;;;;;;;;;;24.95;55.78;101220.64;106684;1251;1227101;-70
2023/07/23 08:05:59;;;;;;;;;;;;;;;24.98;55.27;101215.95;107561;1251;109808;-68
2023/07/23 08:08:28;;;;;;;;;;;;;;;25.04;55.14;101215.55;107524;1251;108792;-69
2023/07/23 08:11:04;;;;;;;;;;;;;;;25.07;54.98;101214.04;107551;1254;97809;-68
2023/07/23 08:13:34;;;;;;;;;;;;;;;25.16;55.06;101214.15;107606;1254;97822;-68
2023/07/23 08:16:03;;;;;;;;;;;;;;;25.26;54.99;101219.15;107658;1254;112209;-69
2023/07/23 08:18:32;;;;;;;;;;;;;;;25.18;53.23;101218.45;107520;1254;109729;-70
2023/07/23 08:21:02;;;;;;;;;;;;;;;25.06;53.50;101216.77;107501;1251;108746;-69
2023/07/23 08:23:30;;;;;;;;;;;;;;;24.93;53.36;101214.85;107595;1251;97835;-70
2023/07/23 08:26:01;;;;;;;;;;;;;;;24.78;53.89;101216.13;107565;1251;97818;-68
2023/07/23 08:28:33;;;;;;;;;;;;;;;24.72;54.03;101212.09;107664;1253;111663;-69
2023/07/23 08:31:01;;;;;;;;;;;;;;;24.81;54.57;101213.86;107660;1254;109645;-69
2023/07/23 08:33:30;;;;;;;;;;;;;;;24.97;54.38;101210.94;107650;1254;108126;-68
2023/07/23 08:35:59;;;;;;;;;;;;;;;25.00;52.71;101215.69;107674;1251;97790;-72
2023/07/23 08:38:30;;;;;;;;;;;;;;;24.89;52.55;101218.09;107568;1256;97872;-69
2023/07/23 08:41:02;;;;;;;;;;;;;;;24.94;52.71;101207.23;107683;1256;112147;-69
2023/07/23 08:43:36;;;;;;;;;;;;;;;25.12;53.03;101209.52;107697;1254;109956;-70
2023/07/23 08:46:11;;;;;;;;;;;;;;;25.31;53.31;101210.56;107603;1255;108603;-68
2023/07/23 08:48:42;;;;;;;;;;;;;;;25.50;53.09;101208.90;107571;1254;97918;-71
2023/07/23 08:51:12;;;;;;;;;;;;;;;25.70;51.89;101203.92;107671;1251;97770;-72
2023/07/23 08:53:41;;;;;;;;;;;;;;;25.87;50.30;101205.12;107552;1251;111529;-69
2023/07/23 08:56:09;;;;;;;;;;;;;;;26.01;49.76;101200.39;107537;1254;109832;-68
2023/07/23 08:58:38;;;;;;;;;;;;;;;26.15;50.56;101195.30;107500;1251;109196;-68
2023/07/23 09:01:06;;;;;;;;;;;;;;;26.32;50.48;101193.99;107570;1251;97818;-68
2023/07/23 09:03:35;;;;;;;;;;;;;;;26.48;49.45;101194.85;107494;1254;97717;-70
2023/07/23 09:06:05;;;;;;;;;;;;;;;26.66;49.23;101188.33;107570;1254;111843;-71
2023/07/23 09:08:34;;;;;;;;;;;;;;;26.83;48.44;101191.59;107580;1251;109768;-69
2023/07/23 09:11:04;;;;;;;;;;;;;;;26.93;47.08;101189.75;107522;1251;108228;-67
2023/07/23 09:13:33;;;;;;;;;;;;;;;27.06;47.64;101187.72;107520;1251;97812;-69
2023/07/23 09:16:02;;;;;;;;;;;;;;;27.19;46.18;101186.11;107666;1251;97810;-72
2023/07/23 09:18:30;;;;;;;;;;;;;;;27.32;45.40;101183.02;107617;1254;111654;-70
2023/07/23 09:20:59;;;;;;;;;;;;;;;27.42;44.48;101180.94;107691;1257;109931;-70
2023/07/23 09:23:27;;;;;;;;;;;;;;;27.62;44.80;101173.85;107622;1256;108212;-70
2023/07/23 09:25:59;;;;;;;;;;;;;;;27.93;44.94;101171.56;107674;1256;97902;-69
2023/07/23 09:28:27;;;;;;;;;;;;;;;28.32;43.08;101168.14;107691;1254;97692;-73
2023/07/23 09:30:56;;;;;;;;;;;;;;;28.74;42.05;101175.16;107715;1254;110374;-68
2023/07/23 09:33:34;;;;;;;;;;;;;;;29.14;41.88;101169.12;107645;1255;110128;-71
2023/07/23 09:36:05;;;;;;;;;;;;;;;29.47;40.55;101171.38;107643;1251;108073;-69
2023/07/23 09:38:34;;;;;;;;;;;;;;;29.78;40.80;101165.95;107575;1254;97724;-72
2023/07/23 09:41:02;;;;;;;;;;;;;;;30.04;39.15;101172.16;107684;1253;97720;-71
2023/07/23 09:43:33;;;;;;;;;;;;;;;30.08;38.04;101170.08;107645;1254;111810;-72
2023/07/23 09:46:01;;;;;;;;;;;;;;;30.23;37.49;101170.63;107522;1255;110144;-72
2023/07/23 09:48:30;;;;;;;;;;;;;;;30.45;36.67;101172.65;107582;1251;107636;-69
2023/07/23 09:51:00;;;;;;;;;;;;;;;30.56;35.92;101167.08;107503;1251;97925;-71
2023/07/23 09:53:28;;;;;;;;;;;;;;;30.71;36.10;101169.29;107584;1253;97918;-70
2023/07/23 09:55:56;;;;;;;;;;;;;;;30.76;35.91;101171.11;107694;1252;112117;-72
2023/07/23 09:58:26;;;;;;;;;;;;;;;31.10;34.71;101170.72;107693;1251;108401;-72
2023/07/23 10:00:56;;;;;;;;;;;;;;;31.47;35.07;101172.17;107466;1251;108003;-72
2023/07/23 10:03:25;;;;;;;;;;;;;;;31.88;34.38;101167.23;107518;1253;97802;-70
2023/07/23 10:05:53;;;;;;;;;;;;;;;32.28;34.30;101163.28;107692;1251;97707;-73
2023/07/23 10:08:26;;;;;;;;;;;;;;;32.61;34.27;101157.70;107667;1251;111717;-74
2023/07/23 10:10:55;;;;;;;;;;;;;;;32.91;32.39;101154.30;107637;1256;110040;-74
2023/07/23 10:13:30;;;;;;;;;;;;;;;32.98;31.75;101153.98;107487;1254;107813;-71
2023/07/23 10:16:20;;;;;;;;;;;;;;;33.06;31.27;101152.48;107631;1251;97811;-76
2023/07/23 10:19:01;;;;;;;;;;;;;;;33.39;32.35;101148.39;107549;1257;97832;-71
2023/07/23 10:21:50;;;;;;;;;;;;;;;34.01;30.28;101153.32;107582;1254;111840;-73
2023/07/23 10:24:36;;;;;;;;;;;;;;;34.44;30.20;101144.68;107586;1251;109466;-69
2023/07/23 10:27:14;;;;;;;;;;;;;;;34.97;29.61;101147.79;107536;1251;107698;-72
2023/07/23 10:30:01;;;;;;;;;;;;;;;35.54;29.77;101144.98;107711;1250;97831;-76
2023/07/23 10:33:08;;;;;;;;;;;;;;;36.12;28.59;101135.58;107592;1251;97694;-70
2023/07/23 10:36:02;;;;;;;;;;;;;;;36.13;25.95;101135.38;107487;1251;112350;-70
2023/07/23 10:38:32;;;;;;;;;;;;;;;36.47;27.56;101132.67;107491;1251;109584;-68
2023/07/23 10:41:01;;;;;;;;;;;;;;;36.94;26.63;101126.42;107519;1251;107986;-70
2023/07/23 10:43:48;;;;;;;;;;;;;;;36.68;27.14;101122.55;107510;1254;97792;-69
2023/07/23 10:46:20;;;;;;;;;;;;;;;36.61;26.21;101123.13;107696;1251;97742;-69
2023/07/23 10:48:50;;;;;;;;;;;;;;;36.70;25.04;101119.89;107691;1251;112038;-70
2023/07/23 10:51:19;;;;;;;;;;;;;;;36.35;24.22;101120.08;107611;1254;109678;-69
2023/07/23 10:53:55;;;;;;;;;;;;;;;36.24;25.35;101111.77;107667;1256;108216;-71
2023/07/23 10:56:28;;;;;;;;;;;;;;;36.80;24.54;101111.33;107632;1251;97691;-71
2023/07/23 10:58:58;;;;;;;;;;;;;;;37.05;25.02;101112.44;107646;1256;98136;-71
2023/07/23 11:01:27;;;;;;;;;;;;;;;37.44;23.86;101107.40;107666;1254;111758;-70
2023/07/23 11:03:57;;;;;;;;;;;;;;;37.75;24.38;101111.67;107594;1256;109846;-70
2023/07/23 11:06:27;;;;;;;;;;;;;;;38.34;22.56;101105.13;107546;1254;107905;-69
2023/07/23 11:08:57;;;;;;;;;;;;;;;38.69;23.71;101106.05;107614;1253;97922;-69
2023/07/23 11:11:31;;;;;;;;;;;;;;;39.32;22.67;101102.63;107727;1251;97800;-69
2023/07/23 11:13:59;;;;;;;;;;;;;;;39.47;21.99;101103.10;107657;1251;112102;-70
2023/07/23 11:16:27;;;;;;;;;;;;;;;38.20;21.85;101106.06;107663;1254;109937;-70
2023/07/23 11:18:56;;;;;;;;;;;;;;;37.25;23.40;101099.55;107679;1251;107799;-70
2023/07/23 11:21:35;;;;;;;;;;;;;;;37.63;23.98;101093.67;107631;1251;97688;-73
2023/07/23 11:24:09;;;;;;;;;;;;;;;38.41;23.81;101085.80;107651;1256;97854;-71
2023/07/23 11:26:41;;;;;;;;;;;;;;;39.11;22.57;101086.08;107486;1254;111877;-70
2023/07/23 11:29:09;;;;;;;;;;;;;;;39.44;22.28;101085.80;107581;1254;108712;-70
2023/07/23 11:31:38;;;;;;;;;;;;;;;38.64;22.68;101082.09;107533;1254;107242;-69
2023/07/23 11:34:07;;;;;;;;;;;;;;;38.16;23.49;101079.48;107604;1253;97922;-68
2023/07/23 11:36:37;;;;;;;;;;;;;;;37.92;23.01;101080.04;107616;1252;97944;-72
2023/07/23 11:39:06;;;;;;;;;;;;;;;37.29;23.96;101079.13;107724;1254;111715;-69
2023/07/23 11:41:39;;;;;;;;;;;;;;;36.89;24.61;101079.73;107660;1254;109547;-75
2023/07/23 11:44:08;;;;;;;;;;;;;;;37.35;24.79;101082.16;107677;1254;108349;-70
2023/07/23 11:46:37;;;;;;;;;;;;;;;38.24;24.03;101074.55;107606;1253;97825;-68
2023/07/23 11:49:06;;;;;;;;;;;;;;;38.61;23.07;101078.40;107641;1256;97941;-69
2023/07/23 11:51:35;;;;;;;;;;;;;;;38.08;23.16;101081.48;107624;1251;111958;-69
2023/07/23 11:54:13;;;;;;;;;;;;;;;37.40;23.72;101081.34;107533;1254;109394;-69
2023/07/23 11:56:48;;;;;;;;;;;;;;;36.65;24.81;101086.57;107659;1254;108524;-68
2023/07/23 11:59:16;;;;;;;;;;;;;;;36.24;25.36;101082.09;107588;1253;97832;-71
2023/07/23 12:01:46;;;;;;;;;;;;;;;35.90;25.12;101079.30;107628;1254;97825;-67
2023/07/23 12:04:14;;;;;;;;;;;;;;;36.38;24.90;101075.44;107683;1251;112171;-72
2023/07/23 12:06:42;;;;;;;;;;;;;;;36.45;25.13;101074.52;107579;1251;109790;-71
2023/07/23 12:09:11;;;;;;;;;;;;;;;36.28;25.24;101074.08;107539;1251;109321;-71
2023/07/23 12:11:41;;;;;;;;;;;;;;;36.24;25.39;101068.92;107668;1254;97804;-69
2023/07/23 12:14:14;;;;;;;;;;;;;;;37.29;24.95;101067.06;107658;1251;97699;-71
2023/07/23 12:16:51;;;;;;;;;;;;;;;38.12;23.36;101066.35;107545;1250;111083;-77
2023/07/23 12:19:26;;;;;;;;;;;;;;;38.59;22.28;101066.91;107545;1254;108621;-71
2023/07/23 12:21:57;;;;;;;;;;;;;;;38.28;22.76;101068.73;107587;1254;107746;-70
2023/07/23 12:24:26;;;;;;;;;;;;;;;38.60;22.76;101064.55;107606;1251;97700;-70
2023/07/23 12:26:59;;;;;;;;;;;;;;;38.48;22.40;101058.13;107556;1254;97828;-71
2023/07/23 12:29:28;;;;;;;;;;;;;;;37.60;23.55;101059.77;107548;1253;111272;-72
2023/07/23 12:32:16;;;;;;;;;;;;;;;37.11;23.76;101058.82;107650;1254;109113;-70
2023/07/23 12:34:45;;;;;;;;;;;;;;;36.91;24.46;101060.67;107569;1251;107821;-69
2023/07/23 12:37:16;;;;;;;;;;;;;;;37.81;23.12;101054.57;107498;1250;97809;-69